createdAt,value
2019-01-08T00:00:05.975Z,8.55
2019-01-08T00:01:05.940Z,8.55
2019-01-08T00:02:05.907Z,8.61
2019-01-08T00:03:05.915Z,8.60
2019-01-08T00:04:06.016Z,8.60
2019-01-08T00:05:05.867Z,8.61
2019-01-08T00:06:05.877Z,8.67
2019-01-08T00:07:05.954Z,8.60
2019-01-08T00:08:05.832Z,8.58
2019-01-08T00:09:05.828Z,8.56
2019-01-08T00:10:05.818Z,8.66
2019-01-08T00:11:05.802Z,8.58
2019-01-08T00:12:05.792Z,8.58
2019-01-08T00:13:05.807Z,8.60
2019-01-08T00:14:05.775Z,8.56
2019-01-08T00:15:05.779Z,8.53
2019-01-08T00:16:05.745Z,8.49
2019-01-08T00:17:05.743Z,8.48
2019-01-08T00:18:05.747Z,8.55
2019-01-08T00:19:05.710Z,8.45
2019-01-08T00:20:05.701Z,8.56
2019-01-08T00:21:05.748Z,8.38
2019-01-08T00:22:05.719Z,8.44
2019-01-08T00:23:05.665Z,8.37
2019-01-08T00:24:05.675Z,8.33
2019-01-08T00:25:05.644Z,8.34
2019-01-08T00:26:05.638Z,8.45
2019-01-08T00:27:05.627Z,8.38
2019-01-08T00:28:06.327Z,8.44
2019-01-08T00:29:05.644Z,8.36
2019-01-08T00:30:05.594Z,8.28
2019-01-08T00:31:05.588Z,8.30
2019-01-08T00:32:05.579Z,8.26
2019-01-08T00:33:05.561Z,8.28
2019-01-08T00:34:05.588Z,8.31
2019-01-08T00:35:05.541Z,8.31
2019-01-08T00:36:05.537Z,8.27
2019-01-08T00:37:05.512Z,8.24
2019-01-08T00:38:05.503Z,8.18
2019-01-08T00:39:05.511Z,8.24
2019-01-08T00:40:05.485Z,8.15
2019-01-08T00:41:05.474Z,8.24
2019-01-08T00:42:05.499Z,8.13
2019-01-08T00:43:05.456Z,8.20
2019-01-08T00:44:05.588Z,8.19
2019-01-08T00:45:05.427Z,8.10
2019-01-08T00:46:05.417Z,8.12
2019-01-08T00:47:05.440Z,8.09
2019-01-08T00:48:05.458Z,8.16
2019-01-08T00:49:05.425Z,8.12
2019-01-08T00:50:05.403Z,8.16
2019-01-08T00:51:05.361Z,8.08
2019-01-08T00:52:05.358Z,8.13
2019-01-08T00:53:05.346Z,8.12
2019-01-08T00:54:05.326Z,8.08
2019-01-08T00:55:05.355Z,8.06
2019-01-08T00:56:05.315Z,8.03
2019-01-08T00:57:05.295Z,7.94
2019-01-08T00:58:05.290Z,7.88
2019-01-08T00:59:05.306Z,7.94
2019-01-08T01:00:05.263Z,8.00
2019-01-08T01:01:05.278Z,7.98
2019-01-08T01:02:05.242Z,8.03
2019-01-08T01:03:05.285Z,8.00
2019-01-08T01:04:05.214Z,8.03
2019-01-08T01:05:05.211Z,8.05
2019-01-08T01:06:05.216Z,8.08
2019-01-08T01:07:05.216Z,8.08
2019-01-08T01:08:05.198Z,8.06
2019-01-08T01:09:05.166Z,8.01
2019-01-08T01:10:05.153Z,8.09
2019-01-08T01:11:05.150Z,7.98
2019-01-08T01:12:05.153Z,7.95
2019-01-08T01:13:05.118Z,7.95
2019-01-08T01:14:05.113Z,7.97
2019-01-08T01:15:05.107Z,7.95
2019-01-08T01:16:05.089Z,7.98
2019-01-08T01:17:05.103Z,8.05
2019-01-08T01:18:05.067Z,7.98
2019-01-08T01:19:05.051Z,7.79
2019-01-08T01:20:05.041Z,7.93
2019-01-08T01:21:05.059Z,7.80
2019-01-08T01:22:05.019Z,7.80
2019-01-08T01:23:05.034Z,7.75
2019-01-08T01:24:05.021Z,7.85
2019-01-08T01:25:04.987Z,7.79
2019-01-08T01:26:04.989Z,7.79
2019-01-08T01:27:05.097Z,7.73
2019-01-08T01:28:04.958Z,7.69
2019-01-08T01:29:04.969Z,7.70
2019-01-08T01:30:04.935Z,7.66
2019-01-08T01:31:04.923Z,7.63
2019-01-08T01:32:04.916Z,7.70
2019-01-08T01:33:04.909Z,7.66
2019-01-08T01:34:04.911Z,7.66
2019-01-08T01:35:04.880Z,7.58
2019-01-08T01:36:04.868Z,7.61
2019-01-08T01:37:04.855Z,7.73
2019-01-08T01:38:04.849Z,7.70
2019-01-08T01:39:04.836Z,7.75
2019-01-08T01:40:05.838Z,7.67
2019-01-08T01:41:04.816Z,7.73
2019-01-08T01:42:04.803Z,7.70
2019-01-08T01:43:04.881Z,7.70
2019-01-08T01:44:04.813Z,7.70
2019-01-08T01:45:04.769Z,7.75
2019-01-08T01:46:04.756Z,7.76
2019-01-08T01:47:04.744Z,7.75
2019-01-08T01:48:04.735Z,7.72
2019-01-08T01:49:04.746Z,7.73
2019-01-08T01:50:04.714Z,7.75
2019-01-08T01:51:04.710Z,7.67
2019-01-08T01:52:04.732Z,7.69
2019-01-08T01:53:04.678Z,7.66
2019-01-08T01:54:04.694Z,7.69
2019-01-08T01:55:04.667Z,7.69
2019-01-08T01:56:04.717Z,7.67
2019-01-08T01:57:04.634Z,7.60
2019-01-08T01:58:04.624Z,7.56
2019-01-08T01:59:08.545Z,7.54
2019-01-08T02:00:04.626Z,7.51
2019-01-08T02:01:04.593Z,7.50
2019-01-08T02:02:04.585Z,7.51
2019-01-08T02:03:04.572Z,7.53
2019-01-08T02:04:04.594Z,7.53
2019-01-08T02:05:04.621Z,7.43
2019-01-08T02:06:04.543Z,7.56
2019-01-08T02:07:04.533Z,7.47
2019-01-08T02:08:04.542Z,7.58
2019-01-08T02:09:04.505Z,7.50
2019-01-08T02:10:04.517Z,7.51
2019-01-08T02:11:04.483Z,7.45
2019-01-08T02:12:04.473Z,7.47
2019-01-08T02:13:04.461Z,7.36
2019-01-08T02:14:04.471Z,7.40
2019-01-08T02:15:04.441Z,7.43
2019-01-08T02:16:04.426Z,7.42
2019-01-08T02:17:04.563Z,7.50
2019-01-08T02:18:04.416Z,7.42
2019-01-08T02:19:04.403Z,7.35
2019-01-08T02:20:04.470Z,7.35
2019-01-08T02:21:04.371Z,7.43
2019-01-08T02:22:04.364Z,7.28
2019-01-08T02:23:04.356Z,7.32
2019-01-08T02:24:04.339Z,7.32
2019-01-08T02:25:04.369Z,7.21
2019-01-08T02:26:04.319Z,7.28
2019-01-08T02:27:04.310Z,7.28
2019-01-08T02:28:04.299Z,7.21
2019-01-08T02:29:04.284Z,7.18
2019-01-08T02:30:04.281Z,7.18
2019-01-08T02:31:04.289Z,7.17
2019-01-08T02:32:04.258Z,7.23
2019-01-08T02:33:04.368Z,7.18
2019-01-08T02:34:04.231Z,7.21
2019-01-08T02:35:04.220Z,7.20
2019-01-08T02:36:04.285Z,7.15
2019-01-08T02:37:04.201Z,7.10
2019-01-08T02:38:04.190Z,7.13
2019-01-08T02:39:04.180Z,7.21
2019-01-08T02:40:04.169Z,7.14
2019-01-08T02:41:04.176Z,7.15
2019-01-08T02:42:04.154Z,7.21
2019-01-08T02:43:04.131Z,7.21
2019-01-08T02:44:04.187Z,7.24
2019-01-08T02:45:04.124Z,7.24
2019-01-08T02:46:04.210Z,7.25
2019-01-08T02:47:04.112Z,7.31
2019-01-08T02:48:04.079Z,7.25
2019-01-08T02:49:04.087Z,7.28
2019-01-08T02:50:04.054Z,7.23
2019-01-08T02:51:04.043Z,7.28
2019-01-08T02:52:04.124Z,7.28
2019-01-08T02:53:04.021Z,7.24
2019-01-08T02:54:04.008Z,7.24
2019-01-08T02:55:04.000Z,7.25
2019-01-08T02:56:03.989Z,7.20
2019-01-08T02:57:04.000Z,7.24
2019-01-08T02:58:03.993Z,7.28
2019-01-08T02:59:03.970Z,7.13
2019-01-08T03:00:03.949Z,7.14
2019-01-08T03:01:03.934Z,7.18
2019-01-08T03:02:03.926Z,7.14
2019-01-08T03:03:03.947Z,7.14
2019-01-08T03:04:03.906Z,7.05
2019-01-08T03:05:03.892Z,7.10
2019-01-08T03:06:03.879Z,7.05
2019-01-08T03:07:03.866Z,7.06
2019-01-08T03:08:03.896Z,6.99
2019-01-08T03:09:03.850Z,7.00
2019-01-08T03:10:03.836Z,6.92
2019-01-08T03:11:03.824Z,6.99
2019-01-08T03:12:03.813Z,6.95
2019-01-08T03:13:03.917Z,6.97
2019-01-08T03:14:03.824Z,6.97
2019-01-08T03:15:03.795Z,6.89
2019-01-08T03:16:03.810Z,6.99
2019-01-08T03:17:03.754Z,6.92
2019-01-08T03:18:03.760Z,7.03
2019-01-08T03:19:03.743Z,6.93
2019-01-08T03:20:03.751Z,6.84
2019-01-08T03:21:03.713Z,6.87
2019-01-08T03:22:03.705Z,6.87
2019-01-08T03:23:03.687Z,6.81
2019-01-08T03:24:03.685Z,6.79
2019-01-08T03:25:03.666Z,6.78
2019-01-08T03:26:03.693Z,6.77
2019-01-08T03:27:03.648Z,6.79
2019-01-08T03:28:03.644Z,6.74
2019-01-08T03:29:03.648Z,6.77
2019-01-08T03:30:03.612Z,6.81
2019-01-08T03:31:03.664Z,6.79
2019-01-08T03:32:03.609Z,6.84
2019-01-08T03:33:10.926Z,6.75
2019-01-08T03:34:03.575Z,6.78
2019-01-08T03:35:03.554Z,6.78
2019-01-08T03:36:03.546Z,6.79
2019-01-08T03:37:03.557Z,6.78
2019-01-08T03:38:03.524Z,6.78
2019-01-08T03:39:03.517Z,6.69
2019-01-08T03:40:10.576Z,6.78
2019-01-08T03:41:03.489Z,6.74
2019-01-08T03:42:03.509Z,6.74
2019-01-08T03:43:03.472Z,6.79
2019-01-08T03:44:03.494Z,6.74
2019-01-08T03:45:03.450Z,6.77
2019-01-08T03:46:03.432Z,6.69
2019-01-08T03:47:03.425Z,6.78
2019-01-08T03:48:03.418Z,6.70
2019-01-08T03:49:03.409Z,6.72
2019-01-08T03:50:03.412Z,6.72
2019-01-08T03:51:03.380Z,6.67
2019-01-08T03:52:03.370Z,6.81
2019-01-08T03:53:03.451Z,6.69
2019-01-08T03:54:03.340Z,6.77
2019-01-08T03:55:03.359Z,6.77
2019-01-08T03:56:03.326Z,6.72
2019-01-08T03:57:03.321Z,6.77
2019-01-08T03:58:03.298Z,6.69
2019-01-08T03:59:03.293Z,6.69
2019-01-08T04:00:03.275Z,6.72
2019-01-08T04:01:03.298Z,6.77
2019-01-08T04:02:03.258Z,6.74
2019-01-08T04:03:03.253Z,6.78
2019-01-08T04:04:03.237Z,6.85
2019-01-08T04:05:03.252Z,6.95
2019-01-08T04:06:03.210Z,6.81
2019-01-08T04:07:03.203Z,6.87
2019-01-08T04:08:03.188Z,6.85
2019-01-08T04:09:03.193Z,6.82
2019-01-08T04:10:03.190Z,6.89
2019-01-08T04:11:03.152Z,6.92
2019-01-08T04:12:03.158Z,6.84
2019-01-08T04:13:03.141Z,6.84
2019-01-08T04:14:03.123Z,6.88
2019-01-08T04:15:03.138Z,6.88
2019-01-08T04:16:03.096Z,6.87
2019-01-08T04:17:03.086Z,6.93
2019-01-08T04:18:03.083Z,6.95
2019-01-08T04:19:03.065Z,6.97
2019-01-08T04:20:03.092Z,7.00
2019-01-08T04:21:03.055Z,6.97
2019-01-08T04:22:03.036Z,7.05
2019-01-08T04:23:03.026Z,6.92
2019-01-08T04:24:03.012Z,7.10
2019-01-08T04:25:02.996Z,7.05
2019-01-08T04:26:03.019Z,7.10
2019-01-08T04:27:02.995Z,7.07
2019-01-08T04:28:03.061Z,7.00
2019-01-08T04:29:02.955Z,7.00
2019-01-08T04:30:02.962Z,7.02
2019-01-08T04:31:02.934Z,6.97
2019-01-08T04:32:02.925Z,6.99
2019-01-08T04:33:02.915Z,6.96
2019-01-08T04:34:02.904Z,6.95
2019-01-08T04:35:02.916Z,6.93
2019-01-08T04:36:02.878Z,6.89
2019-01-08T04:37:02.878Z,6.95
2019-01-08T04:38:02.885Z,6.95
2019-01-08T04:39:02.851Z,7.00
2019-01-08T04:40:02.846Z,6.97
2019-01-08T04:41:02.849Z,7.02
2019-01-08T04:42:02.835Z,7.03
2019-01-08T04:43:02.804Z,6.97
2019-01-08T04:44:02.791Z,6.99
2019-01-08T04:45:02.779Z,7.02
2019-01-08T04:46:02.809Z,7.00
2019-01-08T04:47:02.780Z,6.92
2019-01-08T04:48:02.773Z,6.89
2019-01-08T04:49:02.838Z,7.00
2019-01-08T04:50:02.727Z,6.99
2019-01-08T04:51:02.714Z,7.03
2019-01-08T04:52:02.790Z,6.92
2019-01-08T04:53:02.764Z,7.03
2019-01-08T04:54:02.682Z,7.02
2019-01-08T04:55:02.723Z,6.96
2019-01-08T04:56:02.660Z,6.96
2019-01-08T04:57:02.658Z,7.02
2019-01-08T04:58:02.643Z,6.88
2019-01-08T04:59:02.651Z,6.93
2019-01-08T05:00:02.613Z,6.93
2019-01-08T05:01:02.611Z,6.93
2019-01-08T05:02:02.597Z,6.89
2019-01-08T05:03:02.606Z,6.96
2019-01-08T05:04:02.592Z,6.88
2019-01-08T05:05:02.559Z,6.88
2019-01-08T05:06:02.551Z,6.92
2019-01-08T05:07:02.534Z,6.89
2019-01-08T05:08:02.663Z,6.95
2019-01-08T05:09:02.514Z,6.93
2019-01-08T05:10:02.504Z,6.99
2019-01-08T05:11:02.546Z,6.92
2019-01-08T05:12:02.483Z,6.88
2019-01-08T05:13:02.471Z,6.93
2019-01-08T05:14:02.495Z,6.92
2019-01-08T05:15:02.455Z,6.88
2019-01-08T05:16:02.433Z,6.87
2019-01-08T05:17:02.426Z,6.85
2019-01-08T05:18:02.415Z,6.89
2019-01-08T05:19:02.419Z,6.87
2019-01-08T05:20:02.393Z,6.92
2019-01-08T05:21:02.380Z,6.87
2019-01-08T05:22:02.371Z,6.96
2019-01-08T05:23:02.355Z,6.89
2019-01-08T05:24:02.536Z,6.92
2019-01-08T05:25:02.355Z,6.82
2019-01-08T05:26:02.347Z,6.88
2019-01-08T05:27:02.342Z,6.88
2019-01-08T05:28:02.297Z,6.85
2019-01-08T05:29:02.310Z,6.89
2019-01-08T05:30:07.834Z,6.95
2019-01-08T05:31:03.288Z,6.87
2019-01-08T05:32:02.329Z,6.82
2019-01-08T05:33:02.243Z,6.88
2019-01-08T05:34:02.234Z,6.87
2019-01-08T05:35:02.218Z,6.87
2019-01-08T05:36:02.233Z,6.93
2019-01-08T05:37:02.203Z,6.85
2019-01-08T05:38:02.196Z,6.88
2019-01-08T05:39:02.268Z,6.89
2019-01-08T05:40:02.181Z,6.85
2019-01-08T05:41:02.158Z,6.82
2019-01-08T05:42:02.170Z,6.82
2019-01-08T05:43:02.147Z,6.88
2019-01-08T05:44:02.127Z,6.77
2019-01-08T05:45:02.263Z,6.82
2019-01-08T05:46:02.106Z,6.79
2019-01-08T05:47:02.101Z,6.79
2019-01-08T05:48:02.096Z,6.78
2019-01-08T05:49:02.099Z,6.79
2019-01-08T05:50:02.061Z,6.75
2019-01-08T05:51:02.048Z,6.78
2019-01-08T05:52:02.058Z,6.82
2019-01-08T05:53:02.026Z,6.75
2019-01-08T05:54:02.015Z,6.78
2019-01-08T05:55:02.024Z,6.72
2019-01-08T05:56:01.993Z,6.59
2019-01-08T05:57:02.004Z,6.57
2019-01-08T05:58:01.971Z,6.48
2019-01-08T05:59:01.956Z,6.46
2019-01-08T06:00:01.970Z,6.46
2019-01-08T06:01:01.935Z,6.45
2019-01-08T06:03:03.051Z,6.31
2019-01-08T06:04:01.980Z,6.33
2019-01-08T06:05:01.887Z,6.22
2019-01-08T06:06:01.881Z,6.27
2019-01-08T06:07:01.895Z,6.09
2019-01-08T06:08:01.884Z,6.09
2019-01-08T06:09:01.849Z,6.09
2019-01-08T06:10:01.835Z,6.02
2019-01-08T06:11:01.848Z,6.05
2019-01-08T06:12:01.816Z,5.93
2019-01-08T06:13:01.807Z,5.89
2019-01-08T06:14:01.836Z,5.91
2019-01-08T06:15:01.805Z,5.89
2019-01-08T06:16:01.784Z,5.90
2019-01-08T06:17:01.762Z,5.86
2019-01-08T06:18:01.747Z,5.89
2019-01-08T06:19:01.752Z,5.87
2019-01-08T06:20:01.730Z,5.90
2019-01-08T06:21:01.745Z,5.83
2019-01-08T06:22:01.709Z,5.82
2019-01-08T06:23:01.706Z,5.84
2019-01-08T06:24:01.682Z,5.84
2019-01-08T06:25:01.789Z,5.75
2019-01-08T06:26:01.713Z,5.76
2019-01-08T06:27:01.683Z,5.79
2019-01-08T06:28:01.671Z,5.73
2019-01-08T06:29:01.635Z,5.80
2019-01-08T06:30:01.621Z,5.75
2019-01-08T06:31:01.631Z,5.72
2019-01-08T06:32:01.593Z,5.84
2019-01-08T06:33:01.590Z,5.84
2019-01-08T06:34:01.583Z,5.87
2019-01-08T06:35:01.565Z,5.91
2019-01-08T06:36:01.560Z,5.93
2019-01-08T06:37:01.607Z,5.89
2019-01-08T06:38:01.543Z,5.91
2019-01-08T06:39:01.519Z,5.86
2019-01-08T06:40:01.510Z,5.90
2019-01-08T06:41:01.638Z,5.90
2019-01-08T06:42:01.492Z,5.91
2019-01-08T06:43:01.513Z,5.90
2019-01-08T06:44:01.503Z,5.91
2019-01-08T06:45:01.481Z,5.99
2019-01-08T06:46:01.446Z,5.97
2019-01-08T06:47:01.462Z,6.05
2019-01-08T06:48:01.434Z,5.98
2019-01-08T06:49:01.418Z,6.02
2019-01-08T06:50:01.401Z,6.01
2019-01-08T06:51:01.416Z,6.02
2019-01-08T06:52:01.402Z,6.01
2019-01-08T06:53:01.368Z,5.97
2019-01-08T06:54:01.361Z,5.99
2019-01-08T06:55:01.353Z,5.91
2019-01-08T06:56:01.340Z,5.84
2019-01-08T06:57:01.400Z,5.90
2019-01-08T06:58:01.311Z,5.86
2019-01-08T06:59:01.309Z,5.83
2019-01-08T07:00:01.373Z,5.84
2019-01-08T07:01:01.300Z,5.75
2019-01-08T07:02:01.296Z,5.80
2019-01-08T07:03:01.259Z,5.73
2019-01-08T07:04:01.247Z,5.72
2019-01-08T07:05:01.254Z,5.62
2019-01-08T07:06:01.227Z,5.68
2019-01-08T07:07:01.240Z,5.66
2019-01-08T07:08:01.227Z,5.68
2019-01-08T07:09:01.217Z,5.59
2019-01-08T07:10:01.193Z,5.69
2019-01-08T07:11:01.182Z,5.61
2019-01-08T07:12:01.167Z,5.59
2019-01-08T07:13:01.225Z,5.62
2019-01-08T07:14:01.147Z,5.59
2019-01-08T07:15:01.151Z,5.59
2019-01-08T07:16:01.121Z,5.61
2019-01-08T07:17:01.113Z,5.76
2019-01-08T07:18:01.099Z,5.73
2019-01-08T07:19:01.106Z,5.71
2019-01-08T07:20:01.084Z,5.65
2019-01-08T07:21:01.190Z,5.65
2019-01-08T07:22:01.056Z,5.73
2019-01-08T07:23:01.071Z,5.73
2019-01-08T07:24:01.076Z,5.73
2019-01-08T07:25:01.073Z,5.71
2019-01-08T07:26:01.013Z,5.76
2019-01-08T07:27:00.997Z,5.72
2019-01-08T07:28:00.994Z,5.73
2019-01-08T07:29:00.988Z,5.76
2019-01-08T07:30:00.974Z,5.79
2019-01-08T07:31:00.991Z,5.79
2019-01-08T07:32:00.948Z,5.73
2019-01-08T07:33:00.934Z,5.84
2019-01-08T07:34:00.922Z,5.76
2019-01-08T07:35:00.912Z,5.75
2019-01-08T07:36:00.927Z,5.79
2019-01-08T07:37:00.996Z,5.80
2019-01-08T07:38:00.875Z,5.80
2019-01-08T07:39:00.865Z,5.79
2019-01-08T07:40:00.896Z,5.76
2019-01-08T07:41:00.851Z,5.79
2019-01-08T07:42:00.872Z,5.80
2019-01-08T07:43:00.872Z,5.80
2019-01-08T07:44:00.812Z,5.86
2019-01-08T07:45:00.807Z,5.83
2019-01-08T07:46:00.825Z,5.83
2019-01-08T07:47:00.817Z,5.90
2019-01-08T07:48:00.771Z,5.97
2019-01-08T07:49:00.762Z,5.89
2019-01-08T07:50:00.764Z,5.86
2019-01-08T07:51:00.746Z,5.89
2019-01-08T07:52:00.761Z,5.98
2019-01-08T07:53:00.723Z,6.08
2019-01-08T07:54:00.710Z,6.14
2019-01-08T07:55:00.773Z,6.07
2019-01-08T07:56:00.703Z,6.12
2019-01-08T07:57:00.675Z,5.98
2019-01-08T07:58:00.723Z,5.93
2019-01-08T07:59:00.808Z,5.99
2019-01-08T08:00:00.716Z,5.93
2019-01-08T08:01:00.766Z,5.86
2019-01-08T08:02:00.645Z,5.90
2019-01-08T08:03:00.615Z,5.94
2019-01-08T08:04:01.450Z,5.93
2019-01-08T08:05:00.590Z,5.90
2019-01-08T08:06:00.780Z,5.90
2019-01-08T08:07:00.604Z,5.93
2019-01-08T08:08:00.555Z,5.89
2019-01-08T08:09:00.563Z,5.89
2019-01-08T08:10:00.570Z,5.91
2019-01-08T08:11:00.532Z,5.86
2019-01-08T08:12:00.593Z,5.91
2019-01-08T08:13:00.861Z,5.89
2019-01-08T08:14:00.535Z,5.98
2019-01-08T08:15:00.688Z,5.90
2019-01-08T08:16:00.473Z,5.97
2019-01-08T08:17:00.611Z,6.01
2019-01-08T08:18:00.645Z,5.98
2019-01-08T08:19:01.209Z,5.98
2019-01-08T08:21:01.577Z,6.01
2019-01-08T08:22:00.477Z,6.04
2019-01-08T08:23:00.442Z,5.98
2019-01-08T08:24:00.392Z,6.09
2019-01-08T08:25:00.379Z,6.07
2019-01-08T08:26:00.408Z,6.05
2019-01-08T08:27:00.364Z,6.07
2019-01-08T08:28:00.360Z,6.11
2019-01-08T08:29:00.362Z,6.11
2019-01-08T08:30:00.327Z,6.09
2019-01-08T08:31:00.308Z,6.12
2019-01-08T08:32:00.299Z,6.19
2019-01-08T08:33:00.437Z,6.22
2019-01-08T08:34:00.319Z,6.22
2019-01-08T08:35:07.900Z,6.31
2019-01-08T08:36:01.253Z,6.26
2019-01-08T08:37:00.243Z,6.22
2019-01-08T08:38:00.230Z,6.22
2019-01-08T08:39:00.245Z,6.20
2019-01-08T08:40:00.290Z,6.31
2019-01-08T08:41:00.207Z,6.30
2019-01-08T08:42:00.188Z,6.28
2019-01-08T08:43:00.175Z,6.31
2019-01-08T08:44:00.172Z,6.27
2019-01-08T08:45:00.308Z,6.22
2019-01-08T08:46:00.143Z,6.27
2019-01-08T08:47:00.133Z,6.20
2019-01-08T08:48:00.122Z,6.19
2019-01-08T08:49:00.109Z,6.24
2019-01-08T08:50:00.186Z,6.26
2019-01-08T08:51:00.128Z,6.28
2019-01-08T08:52:00.085Z,6.26
2019-01-08T08:53:00.074Z,6.24
2019-01-08T08:54:00.058Z,6.26
2019-01-08T08:55:00.282Z,6.30
2019-01-08T08:56:00.042Z,6.27
2019-01-08T08:57:00.107Z,6.30
2019-01-08T08:58:00.014Z,6.35
2019-01-08T08:59:00.011Z,6.28
2019-01-08T09:00:00.046Z,6.28
2019-01-08T09:01:06.833Z,6.24
2019-01-08T09:02:00.971Z,6.19
2019-01-08T09:02:59.964Z,6.27
2019-01-08T09:03:59.967Z,6.33
2019-01-08T09:04:59.954Z,6.31
2019-01-08T09:05:59.931Z,6.35
2019-01-08T09:06:59.942Z,6.28
2019-01-08T09:07:59.900Z,6.28
2019-01-08T09:08:59.894Z,6.19
2019-01-08T09:09:59.891Z,6.28
2019-01-08T09:10:59.877Z,6.30
2019-01-08T09:11:59.888Z,6.31
2019-01-08T09:13:00.465Z,6.42
2019-01-08T09:13:59.875Z,6.38
2019-01-08T09:14:59.836Z,6.33
2019-01-08T09:15:59.947Z,6.33
2019-01-08T09:16:59.808Z,6.31
2019-01-08T09:17:59.797Z,6.31
2019-01-08T09:18:59.807Z,6.35
2019-01-08T09:19:59.796Z,6.35
2019-01-08T09:20:59.759Z,6.36
2019-01-08T09:21:59.763Z,6.30
2019-01-08T09:22:59.781Z,6.35
2019-01-08T09:23:59.732Z,6.39
2019-01-08T09:24:59.736Z,6.36
2019-01-08T09:25:59.704Z,6.36
2019-01-08T09:26:59.700Z,6.42
2019-01-08T09:27:59.688Z,6.51
2019-01-08T09:28:59.844Z,6.42
2019-01-08T09:29:59.664Z,6.39
2019-01-08T09:30:59.663Z,6.54
2019-01-08T09:31:59.645Z,6.42
2019-01-08T09:32:59.634Z,6.48
2019-01-08T09:33:59.746Z,6.42
2019-01-08T09:34:59.631Z,6.51
2019-01-08T09:35:59.598Z,6.54
2019-01-08T09:36:59.711Z,6.51
2019-01-08T09:37:59.568Z,6.49
2019-01-08T09:38:59.588Z,6.49
2019-01-08T09:39:59.546Z,6.51
2019-01-08T09:41:06.606Z,6.48
2019-01-08T09:41:59.531Z,6.48
2019-01-08T09:42:59.515Z,6.45
2019-01-08T09:43:59.538Z,6.48
2019-01-08T09:44:59.496Z,6.46
2019-01-08T09:45:59.484Z,6.57
2019-01-08T09:46:59.470Z,6.42
2019-01-08T09:47:59.476Z,6.60
2019-01-08T09:48:59.473Z,6.57
2019-01-08T09:49:59.435Z,6.59
2019-01-08T09:50:59.437Z,6.57
2019-01-08T09:51:59.422Z,6.56
2019-01-08T09:52:59.485Z,6.66
2019-01-08T09:53:59.435Z,6.63
2019-01-08T09:54:59.387Z,6.56
2019-01-08T09:55:59.375Z,6.67
2019-01-08T09:56:59.356Z,6.75
2019-01-08T09:57:59.358Z,6.67
2019-01-08T09:58:59.365Z,6.75
2019-01-08T09:59:59.329Z,6.70
2019-01-08T10:00:59.339Z,6.62
2019-01-08T10:01:59.298Z,6.62
2019-01-08T10:02:59.297Z,6.62
2019-01-08T10:03:59.287Z,6.59
2019-01-08T10:04:59.289Z,6.67
2019-01-08T10:05:59.292Z,6.59
2019-01-08T10:06:59.249Z,6.59
2019-01-08T10:07:59.242Z,6.57
2019-01-08T10:08:59.258Z,6.59
2019-01-08T10:09:59.214Z,6.62
2019-01-08T10:10:59.208Z,6.52
2019-01-08T10:11:59.224Z,6.64
2019-01-08T10:12:59.182Z,6.56
2019-01-08T10:13:59.174Z,6.57
2019-01-08T10:14:59.186Z,6.59
2019-01-08T10:15:59.154Z,6.62
2019-01-08T10:16:59.179Z,6.62
2019-01-08T10:17:59.132Z,6.54
2019-01-08T10:18:59.116Z,6.60
2019-01-08T10:19:59.102Z,6.56
2019-01-08T10:20:59.093Z,6.59
2019-01-08T10:21:59.092Z,6.57
2019-01-08T10:22:59.106Z,6.60
2019-01-08T10:23:59.119Z,6.63
2019-01-08T10:24:59.127Z,6.72
2019-01-08T10:25:59.043Z,6.70
2019-01-08T10:26:59.032Z,6.69
2019-01-08T10:27:59.029Z,6.72
2019-01-08T10:28:59.001Z,6.78
2019-01-08T10:29:59.055Z,6.85
2019-01-08T10:30:58.987Z,6.87
2019-01-08T10:31:59.003Z,6.89
2019-01-08T10:32:58.991Z,6.89
2019-01-08T10:33:58.954Z,6.89
2019-01-08T10:34:59.571Z,6.87
2019-01-08T10:35:58.969Z,6.93
2019-01-08T10:36:58.943Z,6.85
2019-01-08T10:37:58.899Z,6.89
2019-01-08T10:38:58.893Z,6.96
2019-01-08T10:39:58.880Z,6.99
2019-01-08T10:40:58.869Z,6.97
2019-01-08T10:41:58.859Z,7.02
2019-01-08T10:42:58.882Z,7.03
2019-01-08T10:43:58.835Z,7.05
2019-01-08T10:44:58.825Z,7.10
2019-01-08T10:45:58.840Z,7.02
2019-01-08T10:46:58.803Z,7.06
2019-01-08T10:47:58.799Z,7.10
2019-01-08T10:48:59.508Z,7.03
2019-01-08T10:49:58.776Z,7.03
2019-01-08T10:50:58.783Z,7.02
2019-01-08T10:51:58.747Z,7.05
2019-01-08T10:52:58.770Z,7.10
2019-01-08T10:53:58.729Z,7.00
2019-01-08T10:54:58.716Z,7.06
2019-01-08T10:55:58.731Z,7.05
2019-01-08T10:56:58.704Z,7.00
2019-01-08T10:57:58.694Z,7.03
2019-01-08T10:58:58.671Z,7.03
2019-01-08T10:59:58.655Z,7.02
2019-01-08T11:00:58.648Z,6.99
2019-01-08T11:01:58.659Z,7.02
2019-01-08T11:02:58.669Z,7.03
2019-01-08T11:03:58.627Z,7.00
2019-01-08T11:04:58.744Z,6.97
2019-01-08T11:05:58.590Z,7.02
2019-01-08T11:06:58.615Z,6.96
2019-01-08T11:07:58.573Z,6.93
2019-01-08T11:08:58.559Z,6.92
2019-01-08T11:09:58.550Z,6.96
2019-01-08T11:10:58.539Z,7.02
2019-01-08T11:11:58.527Z,6.99
2019-01-08T11:12:58.537Z,7.07
2019-01-08T11:13:58.501Z,7.05
2019-01-08T11:14:58.496Z,7.07
2019-01-08T11:15:58.482Z,7.00
2019-01-08T11:16:58.480Z,6.92
2019-01-08T11:17:58.500Z,6.99
2019-01-08T11:18:58.469Z,6.97
2019-01-08T11:19:58.450Z,6.95
2019-01-08T11:20:58.459Z,7.03
2019-01-08T11:21:58.421Z,6.99
2019-01-08T11:22:58.447Z,7.02
2019-01-08T11:23:58.397Z,7.06
2019-01-08T11:24:58.385Z,7.06
2019-01-08T11:25:58.377Z,7.07
2019-01-08T11:26:58.385Z,7.15
2019-01-08T11:27:58.348Z,7.14
2019-01-08T11:28:58.420Z,7.13
2019-01-08T11:29:58.331Z,7.14
2019-01-08T11:30:58.314Z,7.18
2019-01-08T11:31:58.361Z,7.17
2019-01-08T11:32:58.300Z,7.14
2019-01-08T11:33:58.307Z,7.13
2019-01-08T11:34:58.297Z,7.02
2019-01-08T11:35:58.267Z,7.14
2019-01-08T11:36:58.268Z,7.13
2019-01-08T11:37:58.241Z,7.17
2019-01-08T11:38:58.240Z,7.13
2019-01-08T11:39:58.218Z,7.06
2019-01-08T11:40:58.237Z,7.07
2019-01-08T11:41:58.223Z,7.03
2019-01-08T11:42:58.183Z,7.05
2019-01-08T11:43:58.173Z,7.05
2019-01-08T11:44:58.223Z,7.05
2019-01-08T11:45:58.170Z,7.07
2019-01-08T11:46:58.139Z,6.99
2019-01-08T11:48:03.807Z,7.00
2019-01-08T11:48:59.133Z,6.93
2019-01-08T11:49:58.131Z,6.88
2019-01-08T11:50:58.132Z,6.89
2019-01-08T11:51:58.082Z,6.87
2019-01-08T11:52:58.082Z,6.89
2019-01-08T11:53:58.071Z,6.93
2019-01-08T11:54:58.062Z,6.87
2019-01-08T11:55:59.070Z,6.84
2019-01-08T11:56:58.057Z,6.82
2019-01-08T11:57:58.052Z,6.72
2019-01-08T11:58:58.015Z,6.74
2019-01-08T11:59:58.028Z,6.72
2019-01-08T12:00:58.133Z,6.77
2019-01-08T12:01:57.976Z,6.59
2019-01-08T12:02:57.985Z,6.54
2019-01-08T12:03:57.959Z,6.51
2019-01-08T12:04:57.943Z,6.46
2019-01-08T12:05:57.931Z,6.42
2019-01-08T12:06:57.921Z,6.35
2019-01-08T12:07:57.908Z,6.33
2019-01-08T12:08:58.074Z,6.28
2019-01-08T12:09:57.904Z,6.27
2019-01-08T12:10:57.875Z,6.11
2019-01-08T12:11:57.872Z,6.08
2019-01-08T12:12:57.854Z,6.08
2019-01-08T12:13:57.858Z,5.99
2019-01-08T12:14:57.835Z,5.98
2019-01-08T12:15:57.866Z,5.89
2019-01-08T12:16:57.807Z,5.89
2019-01-08T12:17:57.797Z,5.90
2019-01-08T12:18:57.789Z,5.89
2019-01-08T12:19:57.778Z,5.97
2019-01-08T12:20:57.768Z,5.97
2019-01-08T12:21:57.945Z,6.08
2019-01-08T12:22:57.786Z,6.09
2019-01-08T12:23:57.747Z,6.08
2019-01-08T12:24:57.848Z,6.22
2019-01-08T12:25:57.723Z,6.28
2019-01-08T12:26:57.699Z,6.35
2019-01-08T12:27:57.719Z,6.41
2019-01-08T12:28:57.678Z,6.41
2019-01-08T12:29:57.667Z,6.44
2019-01-08T12:30:57.661Z,6.51
2019-01-08T12:32:05.693Z,6.63
2019-01-08T12:32:58.763Z,6.66
2019-01-08T12:33:57.694Z,6.72
2019-01-08T12:34:57.617Z,6.77
2019-01-08T12:35:57.616Z,6.84
2019-01-08T12:36:57.605Z,6.85
2019-01-08T12:37:57.609Z,6.82
2019-01-08T12:38:57.571Z,6.84
2019-01-08T12:39:57.559Z,6.85
2019-01-08T12:40:57.586Z,6.92
2019-01-08T12:41:57.533Z,6.89
2019-01-08T12:42:57.550Z,6.93
2019-01-08T12:43:57.521Z,6.95
2019-01-08T12:44:57.505Z,7.11
2019-01-08T12:45:57.534Z,6.89
2019-01-08T12:46:57.501Z,6.93
2019-01-08T12:47:57.595Z,6.97
2019-01-08T12:48:57.465Z,6.95
2019-01-08T12:49:57.519Z,6.88
2019-01-08T12:50:57.505Z,6.92
2019-01-08T12:51:57.428Z,6.82
2019-01-08T12:52:57.416Z,6.81
2019-01-08T12:53:57.409Z,6.78
2019-01-08T12:54:57.399Z,6.78
2019-01-08T12:55:57.383Z,6.82
2019-01-08T12:56:57.400Z,6.82
2019-01-08T12:57:57.356Z,6.93
2019-01-08T12:58:57.426Z,6.88
2019-01-08T12:59:57.345Z,6.97
2019-01-08T13:00:57.329Z,7.05
2019-01-08T13:01:57.494Z,7.06
2019-01-08T13:02:57.305Z,7.06
2019-01-08T13:03:57.301Z,7.11
2019-01-08T13:04:57.350Z,7.13
2019-01-08T13:05:57.276Z,7.14
2019-01-08T13:06:57.267Z,7.23
2019-01-08T13:07:57.293Z,7.13
2019-01-08T13:08:57.238Z,7.21
2019-01-08T13:09:57.224Z,7.15
2019-01-08T13:10:57.213Z,7.18
2019-01-08T13:11:57.203Z,7.13
2019-01-08T13:12:57.202Z,7.18
2019-01-08T13:13:57.211Z,7.11
2019-01-08T13:14:57.180Z,7.13
2019-01-08T13:15:57.155Z,7.07
2019-01-08T13:16:57.161Z,7.13
2019-01-08T13:17:57.162Z,7.03
2019-01-08T13:18:57.140Z,7.03
2019-01-08T13:19:57.144Z,7.07